createdAt,value
2019-05-03T00:00:58.365Z,0.00
2019-05-03T00:01:58.371Z,0.00
2019-05-03T00:02:58.384Z,0.00
2019-05-03T00:03:58.394Z,0.00
2019-05-03T00:04:58.396Z,0.00
2019-05-03T00:05:58.402Z,0.00
2019-05-03T00:06:58.413Z,0.00
2019-05-03T00:07:58.422Z,0.00
2019-05-03T00:08:58.427Z,0.00
2019-05-03T00:09:58.436Z,0.00
2019-05-03T00:10:58.444Z,0.00
2019-05-03T00:11:58.454Z,0.00
2019-05-03T00:12:58.462Z,0.00
2019-05-03T00:13:58.470Z,0.00
2019-05-03T00:14:58.475Z,0.00
2019-05-03T00:15:58.483Z,0.00
2019-05-03T00:16:58.490Z,0.00
2019-05-03T00:17:58.506Z,0.00
2019-05-03T00:19:00.933Z,0.00
2019-05-03T00:19:58.515Z,0.00
2019-05-03T00:20:58.524Z,0.00
2019-05-03T00:21:58.532Z,0.00
2019-05-03T00:22:58.537Z,0.00
2019-05-03T00:23:58.549Z,0.00
2019-05-03T00:25:06.072Z,0.00
2019-05-03T00:25:58.566Z,0.00
2019-05-03T00:26:58.573Z,0.00
2019-05-03T00:27:58.578Z,0.00
2019-05-03T00:28:58.587Z,0.00
2019-05-03T00:29:58.595Z,0.00
2019-05-03T00:30:58.604Z,0.00
2019-05-03T00:31:58.612Z,0.00
2019-05-03T00:32:58.620Z,0.00
2019-05-03T00:33:58.629Z,0.00
2019-05-03T00:34:58.637Z,0.00
2019-05-03T00:35:58.642Z,0.00
2019-05-03T00:36:58.650Z,0.00
2019-05-03T00:37:58.658Z,0.00
2019-05-03T00:38:58.668Z,0.00
2019-05-03T00:39:58.676Z,0.00
2019-05-03T00:40:58.684Z,0.00
2019-05-03T00:41:58.688Z,0.00
2019-05-03T00:42:58.701Z,0.00
2019-05-03T00:43:58.706Z,0.00
2019-05-03T00:44:58.712Z,0.00
2019-05-03T00:45:58.720Z,0.00
2019-05-03T00:46:58.729Z,0.00
2019-05-03T00:47:58.748Z,0.00
2019-05-03T00:48:58.747Z,0.00
2019-05-03T00:49:58.753Z,0.00
2019-05-03T00:50:58.759Z,0.00
2019-05-03T00:51:58.765Z,0.00
2019-05-03T00:52:58.775Z,0.00
2019-05-03T00:53:58.784Z,0.00
2019-05-03T00:54:58.791Z,0.00
2019-05-03T00:55:58.801Z,0.00
2019-05-03T00:56:58.809Z,0.00
2019-05-03T00:57:58.816Z,0.00
2019-05-03T00:58:58.818Z,0.00
2019-05-03T00:59:58.829Z,0.00
2019-05-03T01:00:58.839Z,0.00
2019-05-03T01:01:58.848Z,0.00
2019-05-03T01:02:58.856Z,0.00
2019-05-03T01:03:58.867Z,0.00
2019-05-03T01:04:58.877Z,0.00
2019-05-03T01:05:58.884Z,0.00
2019-05-03T01:06:58.889Z,0.00
2019-05-03T01:07:58.895Z,0.00
2019-05-03T01:08:58.905Z,0.00
2019-05-03T01:09:58.913Z,0.00
2019-05-03T01:10:58.935Z,0.00
2019-05-03T01:11:58.929Z,0.00
2019-05-03T01:12:58.936Z,0.00
2019-05-03T01:13:58.942Z,0.00
2019-05-03T01:14:58.949Z,0.00
2019-05-03T01:15:58.983Z,0.00
2019-05-03T01:16:58.966Z,0.00
2019-05-03T01:17:58.979Z,0.00
2019-05-03T01:18:58.982Z,0.00
2019-05-03T01:19:58.984Z,0.00
2019-05-03T01:20:58.994Z,0.00
2019-05-03T01:21:59.019Z,0.00
2019-05-03T01:22:59.016Z,0.00
2019-05-03T01:23:59.030Z,0.00
2019-05-03T01:24:59.028Z,0.00
2019-05-03T01:25:59.037Z,0.00
2019-05-03T01:26:59.047Z,0.00
2019-05-03T01:27:59.052Z,0.00
2019-05-03T01:28:59.058Z,0.00
2019-05-03T01:29:59.065Z,0.00
2019-05-03T01:30:59.078Z,0.00
2019-05-03T01:31:59.085Z,0.00
2019-05-03T01:32:59.089Z,0.00
2019-05-03T01:33:59.101Z,0.00
2019-05-03T01:34:59.113Z,0.00
2019-05-03T01:35:59.133Z,0.00
2019-05-03T01:36:59.122Z,0.00
2019-05-03T01:37:59.129Z,0.00
2019-05-03T01:38:59.142Z,0.00
2019-05-03T01:39:59.147Z,0.00
2019-05-03T01:40:59.152Z,0.00
2019-05-03T01:41:59.161Z,0.00
2019-05-03T01:42:59.173Z,0.00
2019-05-03T01:43:59.178Z,0.00
2019-05-03T01:44:59.187Z,0.00
2019-05-03T01:45:59.190Z,0.00
2019-05-03T01:46:59.203Z,0.00
2019-05-03T01:47:59.207Z,0.00
2019-05-03T01:48:59.212Z,0.00
2019-05-03T01:49:59.220Z,0.00
2019-05-03T01:50:59.230Z,0.00
2019-05-03T01:51:59.240Z,0.00
2019-05-03T01:52:59.242Z,0.00
2019-05-03T01:53:59.256Z,0.00
2019-05-03T01:54:59.262Z,0.00
2019-05-03T01:55:59.274Z,0.00
2019-05-03T01:56:59.343Z,0.00
2019-05-03T01:57:59.288Z,0.00
2019-05-03T01:58:59.292Z,0.00
2019-05-03T01:59:59.300Z,0.00
2019-05-03T02:00:59.304Z,0.00
2019-05-03T02:01:59.313Z,0.00
2019-05-03T02:02:59.316Z,0.00
2019-05-03T02:03:59.332Z,0.00
2019-05-03T02:04:59.331Z,0.00
2019-05-03T02:05:59.346Z,0.00
2019-05-03T02:06:59.358Z,0.00
2019-05-03T02:07:59.358Z,0.00
2019-05-03T02:08:59.369Z,0.00
2019-05-03T02:09:59.377Z,0.00
2019-05-03T02:10:59.385Z,0.00
2019-05-03T02:11:59.388Z,0.00
2019-05-03T02:12:59.401Z,0.00
2019-05-03T02:13:59.402Z,0.00
2019-05-03T02:14:59.417Z,0.00
2019-05-03T02:15:59.430Z,0.00
2019-05-03T02:16:59.432Z,0.00
2019-05-03T02:17:59.437Z,0.00
2019-05-03T02:18:59.446Z,0.00
2019-05-03T02:19:59.455Z,0.00
2019-05-03T02:21:01.531Z,0.00
2019-05-03T02:21:59.467Z,0.00
2019-05-03T02:22:59.476Z,0.00
2019-05-03T02:23:59.482Z,0.00
2019-05-03T02:25:01.613Z,0.00
2019-05-03T02:25:59.501Z,0.00
2019-05-03T02:26:59.504Z,0.00
2019-05-03T02:27:59.514Z,0.00
2019-05-03T02:28:59.514Z,0.00
2019-05-03T02:30:02.739Z,0.00
2019-05-03T02:30:59.536Z,0.00
2019-05-03T02:31:59.545Z,0.00
2019-05-03T02:32:59.552Z,0.00
2019-05-03T02:33:59.559Z,0.00
2019-05-03T02:34:59.568Z,0.00
2019-05-03T02:35:59.575Z,0.00
2019-05-03T02:37:02.690Z,0.00
2019-05-03T02:37:59.594Z,0.00
2019-05-03T02:38:59.597Z,0.00
2019-05-03T02:39:59.606Z,0.00
2019-05-03T02:41:02.680Z,0.00
2019-05-03T02:42:06.788Z,0.00
2019-05-03T02:42:59.627Z,0.00
2019-05-03T02:43:59.635Z,0.00
2019-05-03T02:44:59.641Z,0.00
2019-05-03T02:45:59.651Z,0.00
2019-05-03T02:46:59.658Z,0.00
2019-05-03T02:47:59.667Z,0.00
2019-05-03T02:48:59.671Z,0.00
2019-05-03T02:49:59.681Z,0.00
2019-05-03T02:50:59.687Z,0.00
2019-05-03T02:51:59.695Z,0.00
2019-05-03T02:52:59.703Z,0.00
2019-05-03T02:53:59.717Z,0.00
2019-05-03T02:54:59.717Z,0.00
2019-05-03T02:56:13.765Z,0.00
2019-05-03T02:56:59.732Z,0.00
2019-05-03T02:57:59.740Z,0.00
2019-05-03T02:58:59.758Z,0.00
2019-05-03T02:59:59.754Z,0.00
2019-05-03T03:00:59.762Z,0.00
2019-05-03T03:01:59.770Z,0.00
2019-05-03T03:02:59.778Z,0.00
2019-05-03T03:03:59.789Z,0.00
2019-05-03T03:04:59.790Z,0.00
2019-05-03T03:05:59.799Z,0.00
2019-05-03T03:06:59.810Z,0.00
2019-05-03T03:07:59.819Z,0.00
2019-05-03T03:08:59.819Z,0.00
2019-05-03T03:09:59.828Z,0.00
2019-05-03T03:10:59.837Z,0.00
2019-05-03T03:11:59.849Z,0.00
2019-05-03T03:12:59.854Z,0.00
2019-05-03T03:13:59.877Z,0.00
2019-05-03T03:14:59.867Z,0.00
2019-05-03T03:15:59.873Z,0.00
2019-05-03T03:16:59.879Z,0.00
2019-05-03T03:17:59.890Z,0.00
2019-05-03T03:18:59.900Z,0.00
2019-05-03T03:19:59.905Z,0.00
2019-05-03T03:20:59.913Z,0.00
2019-05-03T03:21:59.925Z,0.00
2019-05-03T03:22:59.933Z,0.00
2019-05-03T03:23:59.937Z,0.00
2019-05-03T03:24:59.943Z,0.00
2019-05-03T03:25:59.951Z,0.00
2019-05-03T03:26:59.956Z,0.00
2019-05-03T03:27:59.965Z,0.00
2019-05-03T03:28:59.971Z,0.00
2019-05-03T03:29:59.979Z,0.00
2019-05-03T03:30:59.988Z,0.00
2019-05-03T03:31:59.997Z,0.00
2019-05-03T03:33:00.005Z,0.00
2019-05-03T03:34:00.017Z,0.00
2019-05-03T03:35:03.152Z,0.00
2019-05-03T03:36:29.488Z,4.00
2019-05-03T03:37:05.129Z,4.00
2019-05-03T03:38:00.043Z,0.00
2019-05-03T03:39:00.051Z,4.00
2019-05-03T03:40:00.055Z,4.00
2019-05-03T03:41:00.062Z,8.00
2019-05-03T03:42:00.070Z,4.00
2019-05-03T03:43:00.077Z,8.00
2019-05-03T03:44:00.087Z,8.00
2019-05-03T03:45:00.088Z,12.00
2019-05-03T03:46:00.109Z,16.00
2019-05-03T03:47:00.111Z,20.00
2019-05-03T03:48:00.118Z,24.00
2019-05-03T03:49:00.128Z,28.00
2019-05-03T03:50:00.136Z,32.00
2019-05-03T03:51:00.136Z,40.00
2019-05-03T03:52:00.148Z,44.00
2019-05-03T03:53:00.155Z,48.00
2019-05-03T03:54:00.162Z,56.00
2019-05-03T03:55:00.172Z,60.00
2019-05-03T03:56:00.176Z,68.00
2019-05-03T03:57:05.055Z,72.00
2019-05-03T03:58:00.185Z,72.00
2019-05-03T03:59:00.199Z,76.00
2019-05-03T04:00:00.207Z,84.00
2019-05-03T04:01:00.210Z,88.00
2019-05-03T04:02:00.220Z,104.00
2019-05-03T04:03:00.223Z,124.00
2019-05-03T04:04:00.236Z,144.00
2019-05-03T04:05:00.244Z,156.00
2019-05-03T04:06:00.253Z,168.00
2019-05-03T04:07:01.335Z,164.00
2019-05-03T04:08:00.272Z,172.00
2019-05-03T04:09:00.282Z,192.00
2019-05-03T04:10:00.285Z,208.00
2019-05-03T04:11:07.965Z,232.00
2019-05-03T04:13:05.474Z,260.00
2019-05-03T04:14:05.420Z,260.00
2019-05-03T04:15:05.670Z,252.00
2019-05-03T04:16:05.553Z,260.00
2019-05-03T04:17:05.955Z,328.00
2019-05-03T04:18:05.592Z,384.00
2019-05-03T04:19:05.742Z,372.00
2019-05-03T04:20:05.036Z,352.00
2019-05-03T04:21:05.521Z,328.00
2019-05-03T04:22:05.843Z,368.00
2019-05-03T04:23:05.313Z,444.00
2019-05-03T04:24:06.027Z,560.00
2019-05-03T04:25:05.962Z,624.00
2019-05-03T04:26:07.004Z,640.00
2019-05-03T04:27:17.685Z,676.00
2019-05-03T04:28:05.718Z,732.00
2019-05-03T04:29:05.358Z,756.00
2019-05-03T04:30:05.896Z,768.00
2019-05-03T04:31:06.184Z,752.00
2019-05-03T04:32:06.055Z,760.00
2019-05-03T04:33:06.032Z,776.00
2019-05-03T04:34:05.049Z,820.00
2019-05-03T04:35:05.395Z,892.00
2019-05-03T04:36:05.422Z,972.00
2019-05-03T04:37:05.345Z,1028.00
2019-05-03T04:38:05.503Z,1076.00
2019-05-03T04:39:05.388Z,1096.00
2019-05-03T04:40:06.245Z,1084.00
2019-05-03T04:41:05.954Z,1096.00
2019-05-03T04:42:06.790Z,1188.00
2019-05-03T04:43:05.987Z,1288.00
2019-05-03T04:44:06.274Z,1368.00
2019-05-03T04:45:05.824Z,1476.00
2019-05-03T04:46:06.685Z,1540.00
2019-05-03T04:47:06.939Z,1504.00
2019-05-03T04:48:05.918Z,1408.00
2019-05-03T04:49:05.713Z,1292.00
2019-05-03T04:50:05.645Z,1168.00
2019-05-03T04:51:05.846Z,1044.00
2019-05-03T04:52:05.825Z,952.00
2019-05-03T04:53:05.676Z,916.00
2019-05-03T04:54:05.358Z,908.00
2019-05-03T04:55:06.597Z,932.00
2019-05-03T04:56:05.780Z,944.00
2019-05-03T04:57:06.597Z,872.00
2019-05-03T04:58:04.901Z,752.00
2019-05-03T04:59:05.189Z,668.00
2019-05-03T05:00:06.050Z,612.00
2019-05-03T05:01:06.260Z,576.00
2019-05-03T05:02:06.086Z,592.00
2019-05-03T05:03:05.934Z,664.00
2019-05-03T05:04:05.384Z,732.00
2019-05-03T05:05:06.025Z,768.00
2019-05-03T05:06:06.270Z,816.00
2019-05-03T05:07:06.210Z,832.00
2019-05-03T05:08:05.887Z,860.00
2019-05-03T05:09:05.073Z,860.00
2019-05-03T05:10:05.253Z,852.00
2019-05-03T05:11:05.420Z,832.00
2019-05-03T05:12:05.769Z,824.00
2019-05-03T05:13:05.445Z,828.00
2019-05-03T05:14:06.372Z,844.00
2019-05-03T05:15:05.308Z,856.00
2019-05-03T05:16:05.879Z,880.00
2019-05-03T05:17:06.166Z,888.00
2019-05-03T05:18:05.836Z,932.00
2019-05-03T05:19:05.717Z,968.00
2019-05-03T05:20:05.298Z,1000.00
2019-05-03T05:21:04.810Z,1028.00
2019-05-03T05:22:05.950Z,984.00
2019-05-03T05:23:04.819Z,940.00
2019-05-03T05:24:05.551Z,820.00
2019-05-03T05:25:04.835Z,756.00
2019-05-03T05:26:05.549Z,772.00
2019-05-03T05:27:05.337Z,796.00
2019-05-03T05:28:04.866Z,704.00
2019-05-03T05:29:05.347Z,656.00
2019-05-03T05:30:04.884Z,600.00
2019-05-03T05:31:04.885Z,720.00
2019-05-03T05:32:05.323Z,768.00
2019-05-03T05:33:05.402Z,772.00
2019-05-03T05:34:05.481Z,720.00
2019-05-03T05:35:05.215Z,656.00
2019-05-03T05:36:04.981Z,640.00
2019-05-03T05:37:05.420Z,632.00
2019-05-03T05:38:04.939Z,632.00
2019-05-03T05:39:05.283Z,616.00
2019-05-03T05:40:05.305Z,636.00
2019-05-03T05:41:05.384Z,680.00
2019-05-03T05:42:04.967Z,700.00
2019-05-03T05:43:05.123Z,712.00
2019-05-03T05:44:05.512Z,816.00
2019-05-03T05:45:05.082Z,936.00
2019-05-03T05:46:05.390Z,880.00
2019-05-03T05:47:05.010Z,800.00
2019-05-03T05:48:05.214Z,816.00
2019-05-03T05:49:05.023Z,860.00
2019-05-03T05:50:05.072Z,896.00
2019-05-03T05:51:05.043Z,916.00
2019-05-03T05:52:05.060Z,912.00
2019-05-03T05:53:05.125Z,848.00
2019-05-03T05:54:05.292Z,784.00
2019-05-03T05:55:05.069Z,788.00
2019-05-03T05:56:05.103Z,836.00
2019-05-03T05:57:08.152Z,844.00
2019-05-03T05:58:07.915Z,776.00
2019-05-03T05:59:05.099Z,920.00
2019-05-03T06:00:05.123Z,944.00
2019-05-03T06:01:05.482Z,940.00
2019-05-03T06:02:05.126Z,1004.00
2019-05-03T06:03:05.252Z,1024.00
2019-05-03T06:04:05.414Z,952.00
2019-05-03T06:05:05.153Z,1068.00
2019-05-03T06:06:05.391Z,1132.00
2019-05-03T06:07:05.161Z,1048.00
2019-05-03T06:08:05.168Z,1116.00
2019-05-03T06:09:05.232Z,1000.00
2019-05-03T06:10:05.369Z,1140.00
2019-05-03T06:11:05.196Z,1168.00
2019-05-03T06:12:05.201Z,1492.00
2019-05-03T06:13:05.210Z,1560.00
2019-05-03T06:14:05.221Z,1768.00
2019-05-03T06:15:05.225Z,1844.00
2019-05-03T06:16:05.275Z,1880.00
2019-05-03T06:17:05.506Z,1892.00
2019-05-03T06:18:05.774Z,1884.00
2019-05-03T06:19:05.251Z,1884.00
2019-05-03T06:20:05.426Z,1960.00
2019-05-03T06:21:05.270Z,1932.00
2019-05-03T06:22:05.278Z,2004.00
2019-05-03T06:23:05.361Z,2344.00
2019-05-03T06:24:05.296Z,2512.00
2019-05-03T06:25:06.381Z,2588.00
2019-05-03T06:26:05.305Z,2612.00
2019-05-03T06:27:05.315Z,2504.00
2019-05-03T06:28:17.336Z,2208.00
2019-05-03T06:29:05.331Z,2376.00
2019-05-03T06:30:05.342Z,2504.00
2019-05-03T06:31:05.354Z,2672.00
2019-05-03T06:32:05.486Z,2596.00
2019-05-03T06:33:05.443Z,2432.00
2019-05-03T06:34:05.370Z,2448.00
2019-05-03T06:35:05.376Z,2792.00
2019-05-03T06:36:05.387Z,2760.00
2019-05-03T06:37:05.394Z,2688.00
2019-05-03T06:38:05.401Z,2684.00
2019-05-03T06:39:08.229Z,2720.00
2019-05-03T06:40:06.170Z,2756.00
2019-05-03T06:41:05.424Z,2700.00
2019-05-03T06:42:09.767Z,2452.00
2019-05-03T06:43:11.194Z,2376.00
2019-05-03T06:44:05.444Z,2280.00
2019-05-03T06:45:10.527Z,2280.00
2019-05-03T06:46:05.461Z,2288.00
2019-05-03T06:47:06.714Z,2228.00
2019-05-03T06:48:05.599Z,2132.00
2019-05-03T06:49:06.495Z,2196.00
2019-05-03T06:50:05.561Z,2280.00
2019-05-03T06:51:10.423Z,2456.00
2019-05-03T06:52:05.959Z,2680.00
2019-05-03T06:53:12.299Z,2748.00
2019-05-03T06:54:05.526Z,2604.00
2019-05-03T06:55:09.168Z,2560.00
2019-05-03T06:56:05.539Z,2864.00
2019-05-03T06:57:09.305Z,3224.00
2019-05-03T06:58:05.554Z,3628.00
2019-05-03T06:59:05.561Z,4188.00
2019-05-03T07:00:05.568Z,4632.00
2019-05-03T07:01:05.576Z,5016.00
2019-05-03T07:02:05.735Z,5392.00
2019-05-03T07:03:05.594Z,5324.00
2019-05-03T07:04:05.600Z,5332.00
2019-05-03T07:05:05.614Z,5248.00
2019-05-03T07:06:05.613Z,5128.00
2019-05-03T07:07:05.629Z,5000.00
2019-05-03T07:08:05.632Z,4936.00
2019-05-03T07:09:05.647Z,5232.00
2019-05-03T07:10:05.647Z,5416.00
2019-05-03T07:11:05.716Z,5620.00
2019-05-03T07:12:05.661Z,5172.00
2019-05-03T07:13:08.785Z,5644.00
2019-05-03T07:14:05.682Z,5400.00
2019-05-03T07:15:05.688Z,5508.00
2019-05-03T07:16:05.693Z,5400.00
2019-05-03T07:17:05.735Z,5232.00
2019-05-03T07:18:05.946Z,5068.00
2019-05-03T07:19:05.717Z,5012.00
2019-05-03T07:20:05.726Z,4320.00
2019-05-03T07:21:05.730Z,4540.00
2019-05-03T07:22:05.744Z,4456.00
2019-05-03T07:23:05.749Z,4768.00
2019-05-03T07:24:05.763Z,4940.00
2019-05-03T07:25:05.764Z,5108.00
2019-05-03T07:26:05.776Z,5876.00
2019-05-03T07:27:05.787Z,5868.00
2019-05-03T07:28:05.802Z,4964.00
2019-05-03T07:29:05.798Z,5456.00
2019-05-03T07:30:05.809Z,6436.00
2019-05-03T07:31:05.831Z,6412.00
2019-05-03T07:32:05.813Z,6336.00
2019-05-03T07:33:05.830Z,6716.00
2019-05-03T07:34:05.837Z,6476.00
2019-05-03T07:35:05.846Z,6312.00
2019-05-03T07:36:05.850Z,6064.00
2019-05-03T07:37:06.081Z,5744.00
2019-05-03T07:38:05.867Z,5460.00
2019-05-03T07:39:05.878Z,5392.00
2019-05-03T07:40:05.892Z,5260.00
2019-05-03T07:41:05.892Z,5300.00
2019-05-03T07:42:05.899Z,5236.00
2019-05-03T07:43:05.910Z,5224.00
2019-05-03T07:44:05.921Z,5264.00
2019-05-03T07:45:05.925Z,4960.00
2019-05-03T07:46:05.930Z,4728.00
2019-05-03T07:47:05.940Z,4988.00
2019-05-03T07:48:05.949Z,4716.00
2019-05-03T07:49:05.958Z,4160.00
2019-05-03T07:50:05.979Z,4452.00
2019-05-03T07:51:05.974Z,4500.00
2019-05-03T07:52:06.064Z,4896.00
2019-05-03T07:53:05.996Z,5128.00
2019-05-03T07:54:05.996Z,4336.00
2019-05-03T07:55:06.005Z,4348.00
2019-05-03T07:56:06.012Z,4920.00
2019-05-03T07:57:06.016Z,5028.00
2019-05-03T07:58:06.029Z,5312.00
2019-05-03T07:59:06.446Z,5492.00
2019-05-03T08:00:06.043Z,5456.00
2019-05-03T08:01:09.582Z,5292.00
2019-05-03T08:02:06.060Z,5764.00
2019-05-03T08:03:06.069Z,6196.00
2019-05-03T08:04:06.090Z,6624.00
2019-05-03T08:05:06.086Z,6716.00
2019-05-03T08:06:06.090Z,6816.00
2019-05-03T08:07:19.330Z,6784.00
2019-05-03T08:08:06.104Z,6528.00
2019-05-03T08:09:06.115Z,6280.00
2019-05-03T08:10:06.126Z,6088.00
2019-05-03T08:11:06.130Z,5964.00
2019-05-03T08:12:06.141Z,5800.00
2019-05-03T08:13:06.147Z,5584.00
2019-05-03T08:14:06.156Z,5332.00
2019-05-03T08:15:06.160Z,5092.00
2019-05-03T08:16:06.172Z,5000.00
2019-05-03T08:17:06.178Z,5060.00
2019-05-03T08:18:06.184Z,5340.00
2019-05-03T08:19:06.193Z,5716.00
2019-05-03T08:20:06.206Z,6024.00
2019-05-03T08:21:06.268Z,6308.00
2019-05-03T08:22:06.218Z,6640.00
2019-05-03T08:23:06.227Z,6716.00
2019-05-03T08:24:06.235Z,6544.00
2019-05-03T08:25:06.241Z,6284.00
2019-05-03T08:26:06.290Z,5916.00
2019-05-03T08:27:06.257Z,5312.00
2019-05-03T08:28:06.265Z,4740.00
2019-05-03T08:29:15.277Z,4884.00
2019-05-03T08:30:06.283Z,5196.00
2019-05-03T08:31:06.291Z,4512.00
2019-05-03T08:32:06.297Z,4124.00
2019-05-03T08:33:06.307Z,3480.00
2019-05-03T08:34:06.315Z,2392.00
2019-05-03T08:35:06.326Z,2016.00
2019-05-03T08:36:06.328Z,1864.00
2019-05-03T08:37:06.339Z,2192.00
2019-05-03T08:38:06.345Z,2932.00
2019-05-03T08:39:06.354Z,3364.00
2019-05-03T08:40:06.354Z,3984.00
2019-05-03T08:41:06.368Z,4328.00
2019-05-03T08:42:06.375Z,5056.00
2019-05-03T08:43:06.385Z,5392.00
2019-05-03T08:44:06.395Z,5832.00
2019-05-03T08:45:08.061Z,6360.00
2019-05-03T08:46:06.405Z,6924.00
2019-05-03T08:47:06.412Z,7524.00
2019-05-03T08:48:06.422Z,8000.00
2019-05-03T08:49:06.434Z,8208.00
2019-05-03T08:50:06.442Z,8284.00
2019-05-03T08:51:06.449Z,8264.00
2019-05-03T08:52:06.454Z,8184.00
2019-05-03T08:53:06.460Z,8220.00
2019-05-03T08:54:06.473Z,8260.00
2019-05-03T08:55:06.484Z,8160.00
2019-05-03T08:56:06.487Z,8300.00
2019-05-03T08:57:06.495Z,8060.00
2019-05-03T08:58:06.502Z,7612.00
2019-05-03T08:59:06.511Z,7128.00
2019-05-03T09:00:06.516Z,6660.00
2019-05-03T09:01:06.554Z,6424.00
2019-05-03T09:02:13.869Z,6304.00
2019-05-03T09:03:06.544Z,6192.00
2019-05-03T09:04:06.550Z,6108.00
2019-05-03T09:05:06.562Z,6128.00
2019-05-03T09:06:06.566Z,6304.00
2019-05-03T09:07:06.577Z,6560.00
2019-05-03T09:08:06.584Z,6824.00
2019-05-03T09:09:06.591Z,7052.00
2019-05-03T09:10:06.597Z,7188.00
2019-05-03T09:11:06.606Z,7272.00
2019-05-03T09:12:06.614Z,7296.00
2019-05-03T09:13:06.861Z,7092.00
2019-05-03T09:14:06.645Z,6904.00
2019-05-03T09:15:06.638Z,7112.00
2019-05-03T09:16:06.691Z,6724.00
2019-05-03T09:17:06.657Z,6312.00
2019-05-03T09:18:06.667Z,5908.00
2019-05-03T09:19:06.673Z,6244.00
2019-05-03T09:20:06.681Z,6044.00
2019-05-03T09:21:06.688Z,6064.00
2019-05-03T09:22:06.732Z,5976.00
2019-05-03T09:23:06.706Z,6032.00
2019-05-03T09:24:06.716Z,6152.00
2019-05-03T09:25:06.723Z,6100.00
2019-05-03T09:26:06.733Z,5752.00
2019-05-03T09:27:06.736Z,5432.00
2019-05-03T09:28:06.747Z,6092.00
2019-05-03T09:29:06.754Z,6168.00
2019-05-03T09:30:06.759Z,6020.00
2019-05-03T09:31:06.775Z,5780.00
2019-05-03T09:32:06.778Z,5464.00
2019-05-03T09:33:09.043Z,5168.00
2019-05-03T09:34:08.320Z,4976.00
2019-05-03T09:35:06.799Z,4964.00
2019-05-03T09:36:06.804Z,4948.00
2019-05-03T09:37:06.828Z,4852.00
2019-05-03T09:38:06.827Z,4808.00
2019-05-03T09:39:06.830Z,4940.00
2019-05-03T09:40:06.843Z,4888.00
2019-05-03T09:41:06.850Z,5036.00
2019-05-03T09:42:06.857Z,4900.00
2019-05-03T09:43:06.865Z,4428.00
2019-05-03T09:44:06.875Z,3860.00
2019-05-03T09:45:06.881Z,3408.00
2019-05-03T09:46:06.890Z,2900.00
2019-05-03T09:47:06.897Z,2928.00
2019-05-03T09:48:06.905Z,2808.00
2019-05-03T09:49:12.810Z,2380.00
2019-05-03T09:50:06.922Z,1764.00
2019-05-03T09:51:06.932Z,1476.00
2019-05-03T09:52:08.430Z,1652.00
2019-05-03T09:53:09.026Z,1548.00
2019-05-03T09:54:06.958Z,1176.00
2019-05-03T09:55:06.964Z,1572.00
2019-05-03T09:56:06.970Z,1716.00
2019-05-03T09:57:06.986Z,1680.00
2019-05-03T09:58:06.986Z,1504.00
2019-05-03T09:59:06.993Z,1804.00
2019-05-03T10:00:07.006Z,2180.00
2019-05-03T10:01:08.597Z,2068.00
2019-05-03T10:02:07.018Z,1544.00
2019-05-03T10:03:07.025Z,1488.00
2019-05-03T10:04:07.035Z,1628.00
2019-05-03T10:05:07.046Z,1748.00
2019-05-03T10:06:07.053Z,1812.00
2019-05-03T10:07:07.057Z,1804.00
2019-05-03T10:08:07.065Z,1784.00
2019-05-03T10:09:07.082Z,1772.00
2019-05-03T10:10:07.086Z,1772.00
2019-05-03T10:11:07.092Z,1780.00
2019-05-03T10:12:07.098Z,1800.00
2019-05-03T10:13:23.165Z,1828.00
2019-05-03T10:15:11.112Z,1900.00
2019-05-03T10:16:11.107Z,1920.00
2019-05-03T10:18:15.132Z,1900.00
2019-05-03T10:19:16.250Z,1844.00
2019-05-03T10:21:19.140Z,1808.00
2019-05-03T10:22:19.134Z,1816.00
2019-05-03T10:24:12.554Z,1848.00
2019-05-03T10:25:12.567Z,1932.00
2019-05-03T10:27:16.589Z,2240.00
2019-05-03T10:28:16.581Z,2444.00
2019-05-03T10:30:20.571Z,3100.00
2019-05-03T10:31:20.572Z,3504.00
2019-05-03T10:33:25.973Z,4268.00
2019-05-03T10:34:24.878Z,4420.00
2019-05-03T10:36:28.598Z,4024.00
2019-05-03T10:37:28.587Z,3736.00
2019-05-03T10:39:32.589Z,3528.00
2019-05-03T10:40:32.593Z,3540.00
2019-05-03T10:42:36.612Z,3892.00
2019-05-03T10:43:36.604Z,4160.00
2019-05-03T10:45:40.601Z,4624.00
2019-05-03T10:46:40.604Z,4804.00
2019-05-03T10:48:45.271Z,5028.00
2019-05-03T10:49:45.763Z,5224.00
2019-05-03T10:51:48.635Z,5784.00
2019-05-03T10:52:48.620Z,6232.00
2019-05-03T10:54:55.742Z,7184.00
2019-05-03T10:55:55.564Z,7540.00
2019-05-03T10:57:57.650Z,7968.00
2019-05-03T10:58:57.646Z,7900.00
2019-05-03T11:01:02.152Z,7704.00
2019-05-03T11:02:02.161Z,7516.00
2019-05-03T11:03:55.100Z,7156.00
2019-05-03T11:04:55.088Z,7112.00
2019-05-03T11:06:59.149Z,7016.00
2019-05-03T11:07:59.129Z,6856.00
2019-05-03T11:08:59.147Z,6540.00
2019-05-03T11:09:59.151Z,6156.00
2019-05-03T11:10:59.154Z,5808.00
2019-05-03T11:11:59.164Z,5552.00
2019-05-03T11:12:59.172Z,5348.00
2019-05-03T11:13:59.181Z,5240.00
2019-05-03T11:15:06.354Z,5364.00
2019-05-03T11:17:03.195Z,5500.00
2019-05-03T11:18:03.181Z,5848.00
2019-05-03T11:20:07.164Z,6212.00
2019-05-03T11:21:07.178Z,6056.00
2019-05-03T11:22:07.180Z,5920.00
2019-05-03T11:23:07.196Z,5880.00
2019-05-03T11:24:07.200Z,5868.00
2019-05-03T11:25:07.208Z,6364.00
2019-05-03T11:26:07.217Z,7344.00
2019-05-03T11:27:07.225Z,8300.00
2019-05-03T11:28:07.234Z,8372.00
2019-05-03T11:29:07.241Z,7980.00
2019-05-03T11:30:09.382Z,8160.00
2019-05-03T11:31:07.261Z,8436.00
2019-05-03T11:32:09.637Z,8332.00
2019-05-03T11:33:07.274Z,7720.00
2019-05-03T11:34:07.289Z,7000.00
2019-05-03T11:35:07.291Z,6480.00
2019-05-03T11:36:07.300Z,5940.00
2019-05-03T11:37:07.308Z,5460.00
2019-05-03T11:38:07.318Z,5028.00
2019-05-03T11:39:07.325Z,4476.00
2019-05-03T11:40:07.336Z,3948.00
2019-05-03T11:41:07.343Z,3480.00
2019-05-03T11:42:07.350Z,3044.00
2019-05-03T11:43:07.358Z,2832.00
2019-05-03T11:44:07.369Z,2740.00
2019-05-03T11:45:07.378Z,2728.00
2019-05-03T11:46:07.397Z,2828.00
2019-05-03T11:47:07.394Z,3028.00
2019-05-03T11:48:07.401Z,3112.00
2019-05-03T11:49:07.408Z,3104.00
2019-05-03T11:50:07.419Z,3120.00
2019-05-03T11:51:07.433Z,3128.00
2019-05-03T11:52:07.435Z,3020.00
2019-05-03T11:53:07.439Z,2828.00
2019-05-03T11:54:07.447Z,2708.00
2019-05-03T11:55:11.359Z,2700.00
2019-05-03T11:56:07.467Z,2860.00
2019-05-03T11:57:07.477Z,3068.00
2019-05-03T11:58:07.488Z,3124.00
2019-05-03T11:59:07.492Z,3092.00
2019-05-03T12:00:07.502Z,3116.00
2019-05-03T12:01:15.782Z,3200.00
2019-05-03T12:02:07.516Z,3308.00
2019-05-03T12:03:07.524Z,3440.00
2019-05-03T12:04:07.531Z,3536.00
2019-05-03T12:05:07.540Z,3708.00
2019-05-03T12:06:07.550Z,3728.00
2019-05-03T12:07:07.562Z,3668.00
2019-05-03T12:08:07.564Z,3532.00
2019-05-03T12:09:07.570Z,3464.00
2019-05-03T12:10:17.109Z,3364.00
2019-05-03T12:11:07.589Z,3268.00
2019-05-03T12:12:07.599Z,3304.00
2019-05-03T12:13:07.607Z,3392.00
2019-05-03T12:14:07.614Z,3164.00
2019-05-03T12:15:07.622Z,2932.00
2019-05-03T12:16:17.549Z,2800.00
2019-05-03T12:17:18.034Z,2692.00
2019-05-03T12:18:08.227Z,2596.00
2019-05-03T12:19:16.952Z,2408.00
2019-05-03T12:20:09.164Z,2296.00
2019-05-03T12:21:09.096Z,2520.00
2019-05-03T12:22:08.368Z,2840.00
2019-05-03T12:23:08.408Z,3184.00
2019-05-03T12:24:08.459Z,3536.00
2019-05-03T12:25:10.490Z,3876.00
2019-05-03T12:26:12.644Z,4288.00
2019-05-03T12:27:07.719Z,4592.00
2019-05-03T12:28:07.725Z,4724.00
2019-05-03T12:29:07.735Z,4652.00
2019-05-03T12:30:07.743Z,4608.00
2019-05-03T12:31:07.749Z,4672.00
2019-05-03T12:32:07.761Z,4796.00
2019-05-03T12:33:07.766Z,5032.00
2019-05-03T12:34:07.780Z,5224.00
2019-05-03T12:35:07.785Z,5544.00
2019-05-03T12:36:07.791Z,6052.00
2019-05-03T12:37:07.800Z,6528.00
2019-05-03T12:38:07.810Z,6772.00
2019-05-03T12:39:23.344Z,7036.00
2019-05-03T12:40:07.824Z,7420.00
2019-05-03T12:41:07.838Z,7824.00
2019-05-03T12:42:07.843Z,8180.00
2019-05-03T12:43:07.844Z,8320.00
2019-05-03T12:44:07.858Z,8356.00
2019-05-03T12:45:07.866Z,8296.00
2019-05-03T12:46:07.882Z,8260.00
2019-05-03T12:47:07.883Z,8296.00
2019-05-03T12:48:07.891Z,8528.00
2019-05-03T12:49:07.900Z,9032.00
2019-05-03T12:50:07.906Z,9552.00
2019-05-03T12:51:08.614Z,9820.00
2019-05-03T12:52:10.336Z,9796.00
2019-05-03T12:53:07.932Z,9712.00